Time;durP1;ratioP1;P1;durP2;ratioP2;P2;SDS_P1;SDS_P2;PMS_P1;PMS_P2;Temp;Humidity;BMP_temperature;BMP_pressure;BME280_temperature;BME280_humidity;BME280_pressure;Samples;Min_cycle;Max_cycle;Signal;HPM_P1;HPM_P2
2021/05/15 00:01:19;;;;;;;6.97;2.38;;;;;;;14.50;56.60;94323.72;2970081;40;20037;-69
2021/05/15 00:03:20;;;;;;;5.80;2.78;;;;;;;14.46;57.22;94326.94;2970410;39;20361;-70
2021/05/15 00:05:20;;;;;;;6.82;2.60;;;;;;;14.43;56.55;94327.31;2966772;40;20080;-70
2021/05/15 00:07:21;;;;;;;5.55;2.40;;;;;;;14.34;56.55;94324.81;2967669;40;20060;-71
2021/05/15 00:09:21;;;;;;;6.90;2.45;;;;;;;14.27;56.14;94328.41;2969099;39;20144;-71
2021/05/15 00:11:22;;;;;;;4.82;2.70;;;;;;;14.08;57.40;94324.59;2972478;39;20063;-70
2021/05/15 00:13:24;;;;;;;6.30;2.38;;;;;;;13.98;57.31;94318.84;2968095;39;20467;-70
2021/05/15 00:15:26;;;;;;;6.35;2.35;;;;;;;13.56;58.32;94321.28;2969997;40;20059;-70
2021/05/15 00:17:27;;;;;;;3.75;1.65;;;;;;;13.37;58.81;94321.88;2971305;39;20494;-72
2021/05/15 00:19:27;;;;;;;7.75;4.05;;;;;;;13.21;59.40;94322.91;2973522;39;20086;-70
2021/05/15 00:21:28;;;;;;;3.97;1.80;;;;;;;13.03;59.48;94325.88;2969809;39;20077;-69
2021/05/15 00:23:29;;;;;;;3.30;1.55;;;;;;;12.74;60.41;94321.47;2972976;39;20048;-71
2021/05/15 00:25:29;;;;;;;4.60;1.92;;;;;;;12.66;61.02;94322.38;2968013;39;20090;-71
2021/05/15 00:27:30;;;;;;;4.05;2.30;;;;;;;12.86;60.62;94320.84;2967341;40;20118;-71
2021/05/15 00:29:30;;;;;;;5.75;1.73;;;;;;;13.11;60.44;94329.22;2967665;40;20049;-70
2021/05/15 00:31:31;;;;;;;2.97;1.80;;;;;;;13.26;59.09;94326.59;2965399;40;20522;-71
2021/05/15 00:33:31;;;;;;;5.32;2.47;;;;;;;13.24;59.50;94319.88;2971053;39;20067;-69
2021/05/15 00:35:32;;;;;;;2.20;1.40;;;;;;;13.05;59.38;94324.69;2966047;40;20448;-70
2021/05/15 00:37:32;;;;;;;7.30;1.73;;;;;;;12.78;60.56;94322.75;2968019;40;20588;-70
2021/05/15 00:39:33;;;;;;;4.43;1.85;;;;;;;12.90;60.80;94331.78;2966064;40;20124;-70
2021/05/15 00:41:34;;;;;;;6.40;1.83;;;;;;;13.04;60.15;94328.34;2967404;40;20126;-69
2021/05/15 00:43:34;;;;;;;4.68;1.65;;;;;;;13.21;59.84;94336.03;2969899;39;20048;-70
2021/05/15 00:45:36;;;;;;;3.05;1.52;;;;;;;13.31;59.75;94324.25;2967257;39;20112;-71
2021/05/15 00:47:36;;;;;;;5.65;1.70;;;;;;;13.31;59.44;94324.25;2970762;39;20101;-71
2021/05/15 00:49:37;;;;;;;3.45;1.58;;;;;;;13.26;59.42;94329.22;2969668;39;20055;-70
2021/05/15 00:51:37;;;;;;;4.10;1.65;;;;;;;13.15;58.93;94318.38;2971103;39;20059;-71
2021/05/15 00:53:38;;;;;;;5.15;1.60;;;;;;;12.74;59.47;94324.09;2963324;40;20044;-69
2021/05/15 00:55:39;;;;;;;3.47;1.60;;;;;;;12.24;61.07;94326.41;2966928;40;20133;-70
2021/05/15 00:57:40;;;;;;;3.58;1.40;;;;;;;12.10;62.09;94330.63;2970197;39;20109;-70
2021/05/15 00:59:40;;;;;;;4.65;1.40;;;;;;;12.04;61.99;94326.06;2970098;39;20498;-71
2021/05/15 01:01:41;;;;;;;4.10;1.27;;;;;;;11.57;63.90;94321.81;2965328;39;20080;-71
2021/05/15 01:03:41;;;;;;;5.80;2.50;;;;;;;11.47;64.48;94328.09;2967354;39;20068;-70
2021/05/15 01:05:42;;;;;;;3.35;2.20;;;;;;;11.73;63.72;94334.00;2972390;39;20270;-70
2021/05/15 01:07:47;;;;;;;3.75;1.98;;;;;;;11.94;63.24;94331.59;2968573;39;20080;-71
2021/05/15 01:09:47;;;;;;;5.15;2.70;;;;;;;12.04;62.01;94332.13;2967118;40;20059;-83
2021/05/15 01:11:48;;;;;;;5.50;2.53;;;;;;;12.01;61.75;94327.25;2971855;39;20063;-83
2021/05/15 01:13:57;;;;;;;4.20;2.60;;;;;;;12.02;61.89;94330.69;2972262;39;20063;-82
2021/05/15 01:15:59;;;;;;;5.10;2.75;;;;;;;12.08;61.87;94328.16;2969881;39;20066;-83
2021/05/15 01:18:00;;;;;;;5.85;2.63;;;;;;;11.44;63.03;94325.00;2977193;39;20052;-83
2021/05/15 01:20:00;;;;;;;8.07;3.67;;;;;;;11.15;64.52;94330.91;2977345;39;20405;-82
2021/05/15 01:22:06;;;;;;;5.65;2.72;;;;;;;11.39;63.96;94330.75;2970809;39;20078;-82
2021/05/15 01:24:07;;;;;;;5.10;2.70;;;;;;;11.68;62.72;94332.72;2975371;39;20062;-83
2021/05/15 01:26:34;;;;;;;5.47;2.83;;;;;;;11.72;61.56;94329.75;2971279;39;20048;-83
2021/05/15 01:28:34;;;;;;;5.15;2.55;;;;;;;11.06;63.80;94330.94;2966899;40;20091;-82
2021/05/15 01:30:34;;;;;;;4.78;3.08;;;;;;;10.82;65.09;94325.81;2975680;39;20055;-81
2021/05/15 01:32:41;;;;;;;5.25;2.40;;;;;;;10.91;64.92;94327.41;2969478;39;20054;-83
2021/05/15 01:34:41;;;;;;;8.02;2.63;;;;;;;11.14;64.33;94318.78;2976660;39;20055;-82
2021/05/15 01:36:42;;;;;;;4.50;2.85;;;;;;;11.45;63.44;94321.41;2978592;39;20518;-83
2021/05/15 01:38:43;;;;;;;4.35;2.17;;;;;;;11.65;62.23;94324.38;2975069;39;20059;-82
2021/05/15 01:40:44;;;;;;;4.47;2.63;;;;;;;11.78;61.92;94319.34;2975274;39;20041;-82
2021/05/15 01:42:44;;;;;;;3.63;2.25;;;;;;;11.97;61.20;94315.47;2971719;39;20364;-83
2021/05/15 01:44:45;;;;;;;4.68;2.95;;;;;;;12.11;60.58;94316.53;2976667;39;20063;-83
2021/05/15 01:46:46;;;;;;;5.20;2.25;;;;;;;12.25;59.96;94317.53;2979911;39;20062;-83
2021/05/15 01:48:46;;;;;;;4.80;2.00;;;;;;;12.39;59.73;94318.53;2982711;39;20098;-82
2021/05/15 01:51:13;;;;;;;3.85;2.28;;;;;;;12.29;59.49;94322.25;2982541;39;20071;-81
2021/05/15 01:53:14;;;;;;;4.38;2.40;;;;;;;12.33;59.81;94320.09;2975143;39;20051;-82
2021/05/15 01:55:22;;;;;;;5.30;2.40;;;;;;;12.41;59.24;94314.75;2984123;39;20200;-83
2021/05/15 01:57:22;;;;;;;4.75;2.60;;;;;;;12.51;58.99;94327.63;2977857;39;20048;-82
2021/05/15 01:59:23;;;;;;;4.95;2.38;;;;;;;12.61;58.67;94319.47;2977012;39;20062;-80
2021/05/15 02:01:24;;;;;;;4.60;2.65;;;;;;;12.70;58.42;94311.31;2978796;39;20052;-81
2021/05/15 02:03:25;;;;;;;4.93;2.50;;;;;;;12.60;58.71;94316.00;2978080;39;20051;-81
2021/05/15 02:05:26;;;;;;;7.70;3.22;;;;;;;12.63;58.78;94310.41;2972577;40;20095;-82
2021/05/15 02:07:26;;;;;;;4.88;2.45;;;;;;;12.63;58.87;94315.66;2972877;40;20047;-81
2021/05/15 02:09:27;;;;;;;5.43;2.88;;;;;;;12.56;58.92;94325.28;2970790;39;20085;-81
2021/05/15 02:11:27;;;;;;;7.60;3.95;;;;;;;12.58;59.34;94328.50;2975822;39;20129;-82
2021/05/15 02:13:29;;;;;;;3.80;2.58;;;;;;;12.62;59.05;94326.34;2972991;40;20060;-83
2021/05/15 02:15:30;;;;;;;10.27;3.92;;;;;;;12.62;58.74;94327.16;2968403;40;20429;-82
2021/05/15 02:17:30;;;;;;;6.70;2.72;;;;;;;12.56;58.99;94320.03;2969972;39;20090;-82
2021/05/15 02:19:31;;;;;;;6.72;2.85;;;;;;;12.52;59.25;94323.16;2971794;39;20072;-70
2021/05/15 02:21:31;;;;;;;6.55;3.05;;;;;;;12.39;59.31;94319.38;2969600;39;20313;-70
2021/05/15 02:23:33;;;;;;;4.35;2.58;;;;;;;12.31;59.90;94322.06;2967826;40;20147;-70
2021/05/15 02:25:33;;;;;;;8.43;3.30;;;;;;;12.23;60.00;94314.25;2966620;40;20110;-70
2021/05/15 02:27:34;;;;;;;9.50;3.05;;;;;;;12.28;60.13;94322.41;2970471;39;20056;-70
2021/05/15 02:29:35;;;;;;;5.05;2.67;;;;;;;12.36;59.81;94319.72;2968812;40;20110;-70
2021/05/15 02:31:35;;;;;;;5.80;3.08;;;;;;;12.15;60.48;94311.72;2965386;40;20063;-69
2021/05/15 02:33:36;;;;;;;7.63;3.85;;;;;;;11.60;61.80;94313.59;2972759;39;20079;-70
2021/05/15 02:35:36;;;;;;;6.78;3.20;;;;;;;11.00;63.97;94313.28;2973243;39;20308;-70
2021/05/15 02:37:37;;;;;;;5.55;3.10;;;;;;;10.93;64.49;94304.47;2973354;39;20053;-71
2021/05/15 02:39:38;;;;;;;8.30;2.97;;;;;;;11.11;64.51;94304.22;2976340;39;20055;-69
2021/05/15 02:41:38;;;;;;;8.70;3.05;;;;;;;11.38;63.64;94305.53;2974571;39;20087;-70
2021/05/15 02:43:39;;;;;;;6.68;3.22;;;;;;;11.65;62.53;94308.63;2970087;39;20052;-70
2021/05/15 02:45:40;;;;;;;6.78;3.20;;;;;;;11.85;61.39;94301.94;2971717;39;20087;-70
2021/05/15 02:47:41;;;;;;;5.05;3.15;;;;;;;12.03;61.05;94308.72;2967413;40;20044;-71
2021/05/15 02:49:41;;;;;;;7.03;2.90;;;;;;;12.17;60.66;94307.09;2975295;39;20048;-70
2021/05/15 02:51:42;;;;;;;4.30;2.70;;;;;;;12.27;60.16;94308.47;2974755;39;20266;-70
2021/05/15 02:53:42;;;;;;;5.55;3.00;;;;;;;12.36;60.07;94314.47;2970635;39;20051;-70
2021/05/15 02:55:43;;;;;;;6.68;2.92;;;;;;;12.42;59.85;94319.00;2968904;39;20132;-71
2021/05/15 02:57:45;;;;;;;6.95;2.38;;;;;;;12.43;59.77;94314.56;2972194;39;20084;-71
2021/05/15 02:59:45;;;;;;;4.30;2.00;;;;;;;12.47;59.37;94313.19;2967593;40;20053;-70
2021/05/15 03:01:46;;;;;;;5.45;2.20;;;;;;;12.52;59.34;94317.91;2966723;40;20059;-71
2021/05/15 03:03:46;;;;;;;5.40;2.60;;;;;;;12.60;59.13;94323.09;2967801;40;20145;-70
2021/05/15 03:05:47;;;;;;;3.63;2.25;;;;;;;12.66;58.47;94317.13;2967880;40;20048;-68
2021/05/15 03:07:48;;;;;;;7.03;2.00;;;;;;;12.66;57.88;94320.56;2968261;40;20056;-71
2021/05/15 03:09:49;;;;;;;5.35;1.95;;;;;;;12.64;58.03;94322.53;2972774;39;20052;-71
2021/05/15 03:11:50;;;;;;;6.72;2.13;;;;;;;12.65;57.77;94318.13;2968479;39;20048;-71
2021/05/15 03:13:50;;;;;;;4.22;1.70;;;;;;;12.68;57.63;94318.56;2970502;39;20342;-71
2021/05/15 03:15:51;;;;;;;3.72;1.90;;;;;;;12.77;57.59;94321.09;2966860;40;20837;-71
2021/05/15 03:17:53;;;;;;;7.78;2.70;;;;;;;12.77;57.86;94315.84;2967814;40;20055;-70
2021/05/15 03:19:53;;;;;;;6.18;3.88;;;;;;;12.88;58.09;94318.00;2972478;39;20056;-72
2021/05/15 03:21:54;;;;;;;6.40;3.22;;;;;;;12.96;57.76;94325.81;2966438;40;20153;-69
2021/05/15 03:23:55;;;;;;;5.03;2.22;;;;;;;13.02;58.05;94319.81;2969883;39;20044;-70
2021/05/15 03:25:55;;;;;;;3.85;1.90;;;;;;;13.08;57.98;94326.97;2969530;39;20130;-71
2021/05/15 03:27:56;;;;;;;4.72;2.53;;;;;;;13.06;58.19;94318.47;2971985;39;20111;-68
2021/05/15 03:29:57;;;;;;;4.80;2.15;;;;;;;13.08;57.50;94316.47;2972869;39;20064;-70
2021/05/15 03:31:59;;;;;;;4.68;2.20;;;;;;;13.05;57.39;94316.81;2973419;39;20473;-70
2021/05/15 03:33:59;;;;;;;3.10;1.80;;;;;;;13.03;57.38;94315.38;2975018;39;20129;-69
2021/05/15 03:36:00;;;;;;;4.55;2.00;;;;;;;13.05;57.33;94314.19;2975978;39;20396;-71
2021/05/15 03:38:00;;;;;;;3.47;1.70;;;;;;;13.05;56.86;94319.44;2976430;39;20133;-71
2021/05/15 03:40:01;;;;;;;3.80;1.90;;;;;;;13.06;57.65;94307.94;2970352;39;20072;-69
2021/05/15 03:42:01;;;;;;;5.07;1.83;;;;;;;12.99;57.53;94314.94;2973745;39;20057;-71
2021/05/15 03:44:02;;;;;;;7.47;2.22;;;;;;;12.93;57.67;94320.09;2968412;39;20079;-71
2021/05/15 03:46:02;;;;;;;5.03;2.40;;;;;;;12.99;58.21;94322.00;2968647;39;20424;-69
2021/05/15 03:48:03;;;;;;;6.38;2.22;;;;;;;13.02;58.51;94321.66;2971713;39;20067;-70
2021/05/15 03:50:04;;;;;;;3.30;2.00;;;;;;;13.15;58.39;94323.63;2968383;40;20048;-70
2021/05/15 03:52:05;;;;;;;4.30;2.00;;;;;;;13.23;58.44;94328.78;2963513;40;20056;-69
2021/05/15 03:54:06;;;;;;;8.43;2.00;;;;;;;13.27;57.82;94333.50;2967874;40;20056;-69
2021/05/15 03:56:06;;;;;;;5.75;2.33;;;;;;;13.28;57.80;94329.03;2973198;39;20052;-70
2021/05/15 03:58:07;;;;;;;4.65;2.25;;;;;;;13.35;57.96;94319.44;2972092;39;20044;-69
2021/05/15 04:00:09;;;;;;;5.68;2.28;;;;;;;13.41;58.34;94318.69;2967666;40;20060;-70
2021/05/15 04:02:09;;;;;;;3.33;2.20;;;;;;;13.47;57.72;94323.22;2969736;39;20040;-69
2021/05/15 04:04:10;;;;;;;2.45;1.83;;;;;;;13.56;57.42;94316.00;2969337;39;20045;-69
2021/05/15 04:06:10;;;;;;;6.72;2.90;;;;;;;13.61;57.23;94318.88;2971609;39;20059;-71
2021/05/15 04:08:11;;;;;;;3.90;2.10;;;;;;;13.66;57.17;94318.34;2966283;40;20052;-70
2021/05/15 04:10:11;;;;;;;3.92;2.40;;;;;;;13.68;57.07;94324.22;2968348;39;20048;-70
2021/05/15 04:12:13;;;;;;;3.90;2.33;;;;;;;13.75;57.28;94313.78;2973958;39;20048;-68
2021/05/15 04:16:45;;;;;;;3.92;2.33;;;;;;;13.85;56.96;94314.25;2973367;39;20055;-70
2021/05/15 04:18:45;;;;;;;4.20;2.70;;;;;;;13.87;55.98;94313.09;2969471;40;20037;-84
2021/05/15 04:20:46;;;;;;;4.85;2.40;;;;;;;13.85;56.58;94312.47;2964766;40;20064;-82
2021/05/15 04:22:46;;;;;;;4.60;2.58;;;;;;;13.72;56.42;94312.31;2974630;39;20059;-82
2021/05/15 04:24:47;;;;;;;7.20;2.72;;;;;;;13.40;57.12;94318.88;2973187;39;20068;-82
2021/05/15 04:26:47;;;;;;;5.97;2.60;;;;;;;13.31;57.72;94318.16;2976756;39;20075;-81
2021/05/15 04:28:48;;;;;;;11.95;5.30;;;;;;;13.27;57.97;94316.88;2968888;40;20117;-82
2021/05/15 04:30:48;;;;;;;12.38;4.65;;;;;;;13.31;57.79;94318.16;2973384;39;20429;-84
2021/05/15 04:32:49;;;;;;;74.32;27.55;;;;;;;13.38;58.19;94313.81;2974589;39;20052;-81
2021/05/15 04:34:49;;;;;;;44.65;23.17;;;;;;;13.48;57.94;94310.88;2969568;40;20300;-81
2021/05/15 04:36:50;;;;;;;44.13;24.42;;;;;;;13.61;57.46;94313.63;2975100;39;20121;-82
2021/05/15 04:38:52;;;;;;;30.67;16.60;;;;;;;13.71;57.53;94315.97;2976983;39;20055;-81
2021/05/15 04:40:52;;;;;;;14.82;7.00;;;;;;;13.82;57.23;94312.03;2976583;39;20140;-79
2021/05/15 04:42:53;;;;;;;9.60;4.50;;;;;;;13.89;56.75;94310.25;2979951;39;20072;-80
2021/05/15 04:44:53;;;;;;;6.72;3.08;;;;;;;13.96;56.57;94305.88;2971041;40;20610;-82
2021/05/15 04:46:54;;;;;;;5.45;2.60;;;;;;;13.98;56.70;94305.66;2971188;40;20060;-83
2021/05/15 04:48:55;;;;;;;5.75;2.90;;;;;;;14.02;56.61;94299.81;2966786;40;20041;-80
2021/05/15 04:50:55;;;;;;;5.78;3.03;;;;;;;14.07;56.60;94297.47;2972188;40;20060;-82
2021/05/15 04:52:56;;;;;;;8.25;3.08;;;;;;;14.07;56.62;94300.09;2971618;40;20460;-83
2021/05/15 04:54:57;;;;;;;5.13;2.90;;;;;;;14.04;56.47;94295.19;2974414;39;20055;-81
2021/05/15 04:56:57;;;;;;;8.38;3.00;;;;;;;14.09;56.54;94287.56;2972814;39;20135;-82
2021/05/15 04:58:58;;;;;;;6.00;2.80;;;;;;;14.20;56.61;94283.56;2969166;39;20175;-83
2021/05/15 05:00:58;;;;;;;7.72;3.70;;;;;;;14.34;56.25;94282.66;2968521;39;20180;-83
2021/05/15 05:02:59;;;;;;;9.30;3.42;;;;;;;14.04;57.05;94281.22;2970677;40;20066;-79
2021/05/15 05:04:59;;;;;;;7.15;3.38;;;;;;;13.83;56.89;94274.13;2971996;40;20060;-82
2021/05/15 05:07:00;;;;;;;16.40;4.18;;;;;;;13.83;57.04;94268.88;2968229;40;20113;-81
2021/05/15 05:09:00;;;;;;;6.10;2.97;;;;;;;13.91;56.74;94263.47;2969556;40;20060;-83
2021/05/15 05:11:01;;;;;;;4.85;3.38;;;;;;;13.93;56.90;94254.38;2970400;40;20313;-81
2021/05/15 05:13:04;;;;;;;4.97;2.92;;;;;;;13.95;56.80;94250.75;2975085;39;20053;-83
2021/05/15 05:15:06;;;;;;;5.60;3.28;;;;;;;13.86;57.15;94250.09;2971223;40;20168;-83
2021/05/15 05:17:06;;;;;;;5.85;3.42;;;;;;;13.85;57.21;94245.81;2979190;39;20064;-82
2021/05/15 05:19:11;;;;;;;7.32;3.33;;;;;;;13.87;56.69;94249.91;2977161;40;20455;-81
2021/05/15 05:21:11;;;;;;;5.70;3.10;;;;;;;13.61;57.29;94250.47;2976122;39;20393;-81
2021/05/15 05:23:12;;;;;;;5.63;3.05;;;;;;;13.54;58.07;94246.16;2970811;39;20066;-82
2021/05/15 05:25:13;;;;;;;4.50;2.72;;;;;;;13.71;58.26;94245.69;2969037;40;20048;-84
2021/05/15 05:27:14;;;;;;;6.65;3.33;;;;;;;13.76;57.14;94247.75;2975793;39;20108;-81
2021/05/15 05:29:15;;;;;;;6.22;3.38;;;;;;;13.71;57.81;94244.91;2972697;39;20171;-80
2021/05/15 05:31:16;;;;;;;5.30;2.85;;;;;;;13.61;57.77;94239.13;2971473;39;20092;-82
2021/05/15 05:33:17;;;;;;;7.30;2.75;;;;;;;13.77;56.92;94238.06;2975977;40;20055;-81
2021/05/15 05:35:18;;;;;;;5.03;2.30;;;;;;;13.83;56.31;94239.91;2975779;39;20047;-84
2021/05/15 05:37:19;;;;;;;4.22;2.90;;;;;;;13.75;57.03;94238.25;2969034;39;20120;-84
2021/05/15 05:39:20;;;;;;;6.53;2.47;;;;;;;13.77;56.54;94232.81;2968901;39;20056;-84
2021/05/15 05:41:23;;;;;;;6.07;1.90;;;;;;;14.03;56.25;94245.34;2972337;40;20044;-84
2021/05/15 05:43:24;;;;;;;5.07;2.53;;;;;;;14.22;56.09;94249.94;2976341;39;20055;-84
2021/05/15 05:45:24;;;;;;;4.80;2.25;;;;;;;14.44;55.79;94247.25;2977463;39;20301;-85
2021/05/15 05:47:25;;;;;;;3.05;1.83;;;;;;;14.62;55.46;94255.47;2976076;39;20130;-85
2021/05/15 05:49:25;;;;;;;9.35;5.70;;;;;;;14.77;54.91;94242.16;2970550;39;20055;-84
2021/05/15 05:51:26;;;;;;;3.22;2.28;;;;;;;14.92;54.58;94247.31;2969579;40;20063;-82
2021/05/15 05:53:27;;;;;;;5.05;2.00;;;;;;;15.06;53.95;94240.28;2974432;39;20468;-83
2021/05/15 05:55:27;;;;;;;4.18;2.05;;;;;;;15.21;53.01;94243.56;2975326;39;20067;-81
2021/05/15 05:57:28;;;;;;;3.92;2.28;;;;;;;15.32;53.01;94236.91;2973064;39;20056;-81
2021/05/15 05:59:28;;;;;;;3.53;1.83;;;;;;;15.36;52.59;94243.41;2971046;40;20083;-81
2021/05/15 06:01:29;;;;;;;4.82;1.98;;;;;;;15.47;52.21;94240.19;2970242;39;20078;-82
2021/05/15 06:03:30;;;;;;;4.13;2.00;;;;;;;15.61;51.99;94240.19;2972160;39;20169;-83
2021/05/15 06:05:30;;;;;;;2.38;1.50;;;;;;;15.66;52.05;94243.03;2976836;39;20079;-82
2021/05/15 06:07:31;;;;;;;4.60;1.98;;;;;;;15.80;51.61;94246.56;2971926;39;20063;-81
2021/05/15 06:09:31;;;;;;;3.33;1.77;;;;;;;15.91;51.46;94246.75;2976637;39;20056;-82
2021/05/15 06:11:32;;;;;;;4.78;1.38;;;;;;;15.96;51.04;94248.81;2974362;40;20061;-84
2021/05/15 06:13:33;;;;;;;4.60;1.58;;;;;;;15.89;51.48;94248.78;2976194;39;20063;-83
2021/05/15 06:15:33;;;;;;;3.55;1.73;;;;;;;15.88;50.80;94241.06;2971190;39;20048;-84
2021/05/15 06:17:34;;;;;;;5.85;1.38;;;;;;;15.93;50.66;94250.00;2972010;39;20056;-84
2021/05/15 06:19:34;;;;;;;2.45;1.30;;;;;;;16.09;50.36;94247.97;2970236;40;20055;-83
2021/05/15 06:21:35;;;;;;;4.10;1.40;;;;;;;16.22;49.84;94249.78;2975802;39;20068;-82
2021/05/15 06:23:35;;;;;;;3.08;1.50;;;;;;;16.31;49.41;94246.75;2973740;40;20067;-83
2021/05/15 06:25:38;;;;;;;5.47;1.30;;;;;;;16.43;48.77;94238.97;2976788;39;20055;-82
2021/05/15 06:27:39;;;;;;;2.63;1.40;;;;;;;16.51;48.48;94243.25;2974549;39;20044;-84
2021/05/15 06:29:39;;;;;;;5.60;2.25;;;;;;;16.59;48.39;94237.75;2974377;39;20060;-82
2021/05/15 06:31:40;;;;;;;3.30;1.67;;;;;;;16.71;48.33;94238.75;2977927;39;20389;-82
2021/05/15 06:33:40;;;;;;;2.83;1.33;;;;;;;16.73;48.02;94233.22;2977080;39;20040;-82
2021/05/15 06:35:41;;;;;;;3.72;1.63;;;;;;;16.84;48.04;94221.22;2976988;39;20090;-82
2021/05/15 06:37:41;;;;;;;5.38;1.45;;;;;;;16.89;47.55;94213.47;2975621;39;20060;-83
2021/05/15 06:39:42;;;;;;;5.93;1.80;;;;;;;16.71;47.91;94209.66;2972001;40;20106;-86
2021/05/15 06:41:43;;;;;;;3.92;1.75;;;;;;;16.55;47.99;94212.72;2973992;39;20424;-81
2021/05/15 06:43:43;;;;;;;5.18;2.97;;;;;;;16.27;48.28;94213.81;2972940;40;20157;-83
2021/05/15 06:45:44;;;;;;;8.85;2.15;;;;;;;15.79;48.82;94218.50;2968880;39;20508;-83
2021/05/15 06:47:44;;;;;;;4.93;1.80;;;;;;;15.73;49.94;94222.78;2970246;39;20068;-87
2021/05/15 06:49:45;;;;;;;5.22;1.60;;;;;;;15.57;50.24;94214.22;2977163;39;20096;-86
2021/05/15 06:51:45;;;;;;;3.83;1.80;;;;;;;15.82;49.88;94220.75;2970218;39;20132;-84
2021/05/15 06:53:46;;;;;;;3.42;1.60;;;;;;;16.14;49.37;94219.13;2972594;40;20045;-84
2021/05/15 06:55:46;;;;;;;3.80;1.60;;;;;;;16.48;48.53;94228.63;2971035;40;20185;-83
2021/05/15 06:57:47;;;;;;;5.10;1.58;;;;;;;16.64;47.73;94223.91;2976106;39;20311;-83
2021/05/15 06:59:47;;;;;;;3.30;1.95;;;;;;;16.78;47.47;94228.94;2970707;40;20048;-83
2021/05/15 07:01:48;;;;;;;3.38;1.77;;;;;;;16.72;47.47;94221.03;2975272;39;20060;-85
2021/05/15 07:03:49;;;;;;;3.58;1.58;;;;;;;16.23;48.38;94217.88;2970706;40;20151;-84
2021/05/15 07:05:49;;;;;;;4.38;1.92;;;;;;;16.21;48.65;94217.25;2980411;39;20036;-81
2021/05/15 07:07:50;;;;;;;3.47;1.65;;;;;;;16.10;48.49;94217.91;2976037;39;20090;-83
2021/05/15 07:09:51;;;;;;;5.80;1.65;;;;;;;16.20;48.40;94213.00;2975841;39;20422;-82
2021/05/15 07:11:53;;;;;;;5.20;1.80;;;;;;;16.51;48.01;94214.97;2977461;39;20051;-82
2021/05/15 07:13:54;;;;;;;4.32;1.80;;;;;;;16.73;47.18;94202.28;2973593;39;20052;-84
2021/05/15 07:15:54;;;;;;;6.30;2.20;;;;;;;16.72;48.39;94199.88;2970874;39;20411;-84
2021/05/15 07:17:55;;;;;;;3.50;2.05;;;;;;;16.98;47.43;94212.22;2978286;40;20052;-82
2021/05/15 07:19:56;;;;;;;4.07;1.85;;;;;;;17.03;46.50;94212.38;2970902;40;20364;-82
2021/05/15 07:21:56;;;;;;;4.32;1.90;;;;;;;17.33;46.52;94203.88;2977139;39;20052;-84
2021/05/15 07:23:57;;;;;;;4.70;1.90;;;;;;;17.29;45.66;94206.13;2981154;39;20052;-85
2021/05/15 07:25:57;;;;;;;3.38;1.40;;;;;;;16.83;46.56;94201.88;2976574;39;20063;-82
2021/05/15 07:27:58;;;;;;;8.30;1.98;;;;;;;16.92;46.51;94197.97;2975862;39;20076;-84
2021/05/15 07:30:00;;;;;;;2.65;1.60;;;;;;;17.17;46.25;94192.78;2971792;40;20333;-82
2021/05/15 07:32:01;;;;;;;3.85;1.73;;;;;;;17.37;45.78;94191.84;2974616;39;20052;-70
2021/05/15 07:34:01;;;;;;;3.40;1.40;;;;;;;17.36;45.78;94196.34;2975376;39;20044;-71
2021/05/15 07:36:02;;;;;;;5.55;2.13;;;;;;;17.50;45.37;94194.41;2974718;39;20052;-71
2021/05/15 07:38:03;;;;;;;4.15;1.60;;;;;;;17.65;44.54;94183.50;2976189;39;20064;-70
2021/05/15 07:40:04;;;;;;;4.97;2.10;;;;;;;17.43;44.50;94185.69;2976122;39;20409;-70
2021/05/15 07:42:05;;;;;;;5.53;2.20;;;;;;;17.64;44.56;94181.06;2975197;39;20258;-70
2021/05/15 07:44:06;;;;;;;7.25;2.30;;;;;;;17.98;44.37;94179.78;2967846;39;20413;-71
2021/05/15 07:46:06;;;;;;;4.07;1.60;;;;;;;17.98;44.23;94177.97;2967777;39;20044;-71
2021/05/15 07:48:07;;;;;;;4.72;1.75;;;;;;;17.71;44.46;94169.41;2969820;39;20047;-71
2021/05/15 07:50:08;;;;;;;2.75;1.30;;;;;;;17.46;44.43;94171.22;2974329;39;20059;-72
2021/05/15 07:52:09;;;;;;;3.35;1.35;;;;;;;17.43;44.23;94163.72;2969802;39;20132;-71
2021/05/15 07:54:09;;;;;;;3.35;1.30;;;;;;;17.37;44.75;94154.78;2973210;39;20134;-69
2021/05/15 07:56:10;;;;;;;4.53;2.10;;;;;;;17.65;45.08;94156.22;2966119;40;20072;-70
2021/05/15 07:58:10;;;;;;;6.07;1.52;;;;;;;17.72;44.93;94168.34;2969074;39;20074;-72
2021/05/15 08:00:13;;;;;;;10.27;1.50;;;;;;;17.95;43.28;94173.09;2973848;39;20047;-70
2021/05/15 08:02:13;;;;;;;2.78;1.30;;;;;;;18.18;42.47;94172.50;2974831;39;20127;-83
2021/05/15 08:04:14;;;;;;;2.47;1.50;;;;;;;18.17;41.77;94165.56;2970610;39;20361;-83
2021/05/15 08:06:14;;;;;;;7.43;1.90;;;;;;;17.99;43.06;94168.19;2969989;39;20050;-87
2021/05/15 08:08:15;;;;;;;3.33;1.60;;;;;;;17.77;43.37;94175.69;2976001;39;20068;-82
2021/05/15 08:10:15;;;;;;;4.10;1.90;;;;;;;17.87;43.63;94176.00;2972306;39;20055;-84
2021/05/15 08:12:16;;;;;;;7.30;2.05;;;;;;;17.91;43.84;94173.75;2972667;39;20044;-83
2021/05/15 08:14:16;;;;;;;3.35;1.70;;;;;;;17.93;43.54;94169.84;2970172;40;20083;-83
2021/05/15 08:16:17;;;;;;;3.72;1.60;;;;;;;18.03;43.36;94166.72;2968767;39;20386;-83
2021/05/15 08:18:18;;;;;;;5.65;1.70;;;;;;;18.04;43.46;94159.56;2970959;40;20171;-84
2021/05/15 08:20:20;;;;;;;5.72;2.03;;;;;;;18.01;43.30;94158.97;2970136;39;20157;-83
2021/05/15 08:22:20;;;;;;;5.20;2.05;;;;;;;17.98;43.32;94156.78;2974345;39;20040;-85
2021/05/15 08:24:21;;;;;;;3.95;1.40;;;;;;;17.91;43.32;94153.34;2971248;40;20427;-85
2021/05/15 08:26:22;;;;;;;3.00;1.40;;;;;;;18.18;43.61;94139.88;2974352;39;20402;-82
2021/05/15 08:28:24;;;;;;;4.43;1.75;;;;;;;18.61;43.05;94133.69;2971163;39;20059;-85
2021/05/15 08:30:28;;;;;;;3.60;2.33;;;;;;;18.56;42.22;94137.00;2976650;39;20044;-84
2021/05/15 08:32:29;;;;;;;4.40;2.03;;;;;;;18.32;42.80;94143.19;2971391;39;20399;-83
2021/05/15 08:34:29;;;;;;;3.90;2.22;;;;;;;18.53;42.49;94142.75;2974907;40;20086;-79
2021/05/15 08:36:30;;;;;;;4.47;1.65;;;;;;;18.63;42.74;94137.72;2974997;39;20048;-83
2021/05/15 08:38:30;;;;;;;4.88;1.83;;;;;;;18.59;42.82;94139.22;2970419;39;20421;-83
2021/05/15 08:40:31;;;;;;;4.50;1.85;;;;;;;18.79;42.72;94135.53;2975960;39;20074;-84
2021/05/15 08:42:36;;;;;;;4.00;1.60;;;;;;;19.15;42.70;94137.31;2976423;39;20134;-85
2021/05/15 08:44:37;;;;;;;3.53;1.75;;;;;;;19.39;42.10;94140.03;2975718;39;20384;-83
2021/05/15 08:46:41;;;;;;;5.00;2.10;;;;;;;19.56;41.29;94142.84;2971712;39;20063;-83
2021/05/15 08:48:43;;;;;;;8.00;3.33;;;;;;;19.65;41.75;94150.25;2973724;39;20159;-81
2021/05/15 08:50:43;;;;;;;3.78;2.15;;;;;;;19.71;41.58;94143.25;2968951;39;20333;-82
2021/05/15 08:52:46;;;;;;;4.75;1.63;;;;;;;19.83;41.38;94140.59;2970840;39;20095;-83
2021/05/15 08:54:47;;;;;;;6.88;2.40;;;;;;;19.93;40.96;94138.16;2975850;39;20051;-83
2021/05/15 08:56:49;;;;;;;3.28;1.45;;;;;;;20.09;40.34;94127.88;2973016;39;20065;-84
2021/05/15 08:58:49;;;;;;;4.43;1.65;;;;;;;20.09;40.06;94135.84;2974727;39;20427;-84
2021/05/15 09:00:51;;;;;;;3.28;1.75;;;;;;;20.12;40.24;94132.75;2975329;39;20054;-83
2021/05/15 09:02:57;;;;;;;3.90;1.80;;;;;;;20.16;40.40;94139.22;2976147;39;20085;-81
2021/05/15 09:04:59;;;;;;;4.60;1.98;;;;;;;20.21;39.94;94142.00;2974764;39;20063;-84
2021/05/15 09:07:01;;;;;;;4.78;1.65;;;;;;;20.17;39.91;94131.00;2968662;39;20052;-81
2021/05/15 09:09:03;;;;;;;7.03;1.75;;;;;;;20.23;39.59;94126.63;2973751;40;20166;-84
2021/05/15 09:11:05;;;;;;;3.90;1.33;;;;;;;20.29;39.37;94135.53;2969141;40;20060;-82
2021/05/15 09:13:17;;;;;;;3.25;1.25;;;;;;;20.33;38.81;94126.84;2975236;39;21023;-82
2021/05/15 09:15:19;;;;;;;3.33;1.67;;;;;;;20.25;39.18;94121.88;2978201;39;20076;-85
2021/05/15 09:17:21;;;;;;;3.40;1.67;;;;;;;20.33;39.39;94118.84;2968108;40;20064;-86
2021/05/15 09:19:25;;;;;;;3.67;1.40;;;;;;;20.43;39.49;94121.75;2970473;39;20088;-82
2021/05/15 09:21:28;;;;;;;;;;;;;;;20.49;40.22;94112.00;2970221;39;20132;-83
2021/05/15 09:23:38;;;;;;;;;;;;;;;20.54;40.40;94119.28;2974660;39;19928;-81
2021/05/15 09:25:40;;;;;;;5.72;1.55;;;;;;;20.58;40.04;94117.78;2970508;39;20019;-81
2021/05/15 09:27:42;;;;;;;5.03;1.95;;;;;;;20.61;39.76;94112.00;2971982;39;20098;-80
2021/05/15 09:29:46;;;;;;;4.20;1.58;;;;;;;20.63;39.50;94112.59;2973791;39;20299;-82
2021/05/15 09:31:48;;;;;;;3.42;1.33;;;;;;;20.62;39.41;94116.28;2967794;40;20363;-83
2021/05/15 09:33:58;;;;;;;4.75;1.45;;;;;;;20.60;39.84;94119.16;2976732;39;20118;-83